Time;durP1;ratioP1;P1;durP2;ratioP2;P2;SDS_P1;SDS_P2;PMS_P1;PMS_P2;Temp;Humidity;BMP_temperature;BMP_pressure;BME280_temperature;BME280_humidity;BME280_pressure;Samples;Min_cycle;Max_cycle;Signal;HPM_P1;HPM_P2
2022/09/02 00:00:41;;;;;;;2.80;1.87;;;;;;;;;;5015578;28;20286;-68
2022/09/02 00:03:07;;;;;;;4.30;1.70;;;;;;;;;;5015586;28;20195;-67
2022/09/02 00:05:33;;;;;;;3.20;1.90;;;;;;;;;;5015613;28;20184;-67
2022/09/02 00:07:59;;;;;;;4.50;2.00;;;;;;;;;;5015511;28;20187;-67
2022/09/02 00:10:25;;;;;;;8.33;2.13;;;;;;;;;;5014146;28;20246;-67
2022/09/02 00:12:51;;;;;;;3.70;2.17;;;;;;;;;;5014197;28;20206;-67
2022/09/02 00:15:17;;;;;;;2.13;1.87;;;;;;;;;;5015438;28;20656;-68
2022/09/02 00:17:43;;;;;;;4.73;2.17;;;;;;;;;;5014114;28;20272;-67
2022/09/02 00:20:09;;;;;;;2.63;1.90;;;;;;;;;;5015150;28;20614;-67
2022/09/02 00:22:35;;;;;;;2.63;1.90;;;;;;;;;;5014067;28;20183;-67
2022/09/02 00:25:01;;;;;;;3.23;2.00;;;;;;;;;;5015771;28;20229;-67
2022/09/02 00:27:27;;;;;;;2.40;1.90;;;;;;;;;;5015195;28;20182;-67
2022/09/02 00:29:53;;;;;;;2.83;1.90;;;;;;;;;;5015020;28;20246;-67
2022/09/02 00:32:19;;;;;;;5.93;2.00;;;;;;;;;;5015347;28;20184;-67
2022/09/02 00:34:45;;;;;;;4.50;2.00;;;;;;;;;;5015072;28;20176;-67
2022/09/02 00:37:12;;;;;;;1.90;1.80;;;;;;;;;;5013697;28;20172;-67
2022/09/02 00:39:38;;;;;;;2.10;1.90;;;;;;;;;;5013623;28;20184;-67
2022/09/02 00:42:05;;;;;;;1.80;1.70;;;;;;;;;;5014944;28;20188;-68
2022/09/02 00:44:32;;;;;;;2.97;1.80;;;;;;;;;;5015417;28;20249;-67
2022/09/02 00:46:59;;;;;;;2.50;2.00;;;;;;;;;;5014801;28;20176;-68
2022/09/02 00:49:26;;;;;;;4.23;2.17;;;;;;;;;;5014611;28;20572;-66
2022/09/02 00:51:58;;;;;;;3.17;1.83;;;;;;;;;;5014612;28;20195;-67
2022/09/02 00:54:25;;;;;;;5.93;2.13;;;;;;;;;;5014677;28;20318;-67
2022/09/02 00:56:52;;;;;;;1.80;1.60;;;;;;;;;;5014812;28;20180;-67
2022/09/02 00:59:21;;;;;;;3.47;1.90;;;;;;;;;;5013359;28;20250;-67
2022/09/02 01:01:47;;;;;;;2.60;1.83;;;;;;;;;;5014512;28;20199;-67
2022/09/02 01:04:13;;;;;;;4.30;2.20;;;;;;;;;;5015040;28;20234;-67
2022/09/02 01:06:39;;;;;;;6.90;2.20;;;;;;;;;;5014840;28;20587;-67
2022/09/02 01:09:09;;;;;;;7.23;2.20;;;;;;;;;;5014693;28;20684;-67
2022/09/02 01:11:42;;;;;;;2.57;1.90;;;;;;;;;;5013204;28;20627;-67
2022/09/02 01:14:09;;;;;;;3.30;1.70;;;;;;;;;;5014828;28;20210;-67
2022/09/02 01:16:40;;;;;;;3.63;1.80;;;;;;;;;;5015472;28;20172;-68
2022/09/02 01:19:09;;;;;;;4.83;1.80;;;;;;;;;;5015505;28;20210;-67
2022/09/02 01:21:35;;;;;;;5.13;1.70;;;;;;;;;;5014394;28;20208;-67
2022/09/02 01:24:01;;;;;;;4.10;1.83;;;;;;;;;;5014002;28;20582;-67
2022/09/02 01:26:27;;;;;;;4.57;2.03;;;;;;;;;;5015559;28;20191;-67
2022/09/02 01:28:53;;;;;;;4.13;2.30;;;;;;;;;;5012787;28;20590;-67
2022/09/02 01:31:19;;;;;;;2.53;1.70;;;;;;;;;;5013493;28;20220;-67
2022/09/02 01:33:45;;;;;;;5.20;1.80;;;;;;;;;;5014375;28;20263;-67
2022/09/02 01:36:11;;;;;;;2.60;1.90;;;;;;;;;;5014356;28;20198;-67
2022/09/02 01:38:37;;;;;;;4.67;1.80;;;;;;;;;;5014003;28;20575;-67
2022/09/02 01:41:03;;;;;;;4.63;2.03;;;;;;;;;;5013965;28;20196;-67
2022/09/02 01:43:29;;;;;;;2.03;1.70;;;;;;;;;;5013891;28;20194;-67
2022/09/02 01:45:56;;;;;;;3.87;2.27;;;;;;;;;;5013863;28;20183;-67
2022/09/02 01:48:22;;;;;;;2.93;1.83;;;;;;;;;;5012483;28;20580;-67
2022/09/02 01:50:50;;;;;;;5.40;1.90;;;;;;;;;;5013623;28;20216;-67
2022/09/02 01:53:16;;;;;;;4.33;2.13;;;;;;;;;;5012481;28;20262;-67
2022/09/02 01:55:42;;;;;;;3.73;2.03;;;;;;;;;;5013907;28;20211;-68
2022/09/02 01:58:08;;;;;;;3.23;1.80;;;;;;;;;;5013686;28;20529;-68
2022/09/02 02:00:34;;;;;;;2.17;1.90;;;;;;;;;;5013740;28;20214;-67
2022/09/02 02:03:00;;;;;;;6.67;2.00;;;;;;;;;;5013528;28;20176;-68
2022/09/02 02:05:26;;;;;;;5.07;2.30;;;;;;;;;;5013520;28;20183;-68
2022/09/02 02:07:53;;;;;;;3.87;2.17;;;;;;;;;;5013708;28;20180;-68
2022/09/02 02:10:19;;;;;;;3.73;2.17;;;;;;;;;;5013405;28;20199;-68
2022/09/02 02:12:45;;;;;;;4.00;1.93;;;;;;;;;;5012196;28;20191;-67
2022/09/02 02:15:14;;;;;;;2.93;1.73;;;;;;;;;;5012290;28;20180;-68
2022/09/02 02:17:40;;;;;;;7.40;2.30;;;;;;;;;;5013747;28;20184;-68
2022/09/02 02:20:07;;;;;;;2.23;1.80;;;;;;;;;;5013332;28;20219;-68
2022/09/02 02:22:33;;;;;;;1.93;1.70;;;;;;;;;;5013651;28;20644;-67
2022/09/02 02:24:59;;;;;;;2.87;1.87;;;;;;;;;;5012084;28;20278;-67
2022/09/02 02:27:25;;;;;;;3.77;2.03;;;;;;;;;;5012103;28;20190;-67
2022/09/02 02:29:51;;;;;;;2.30;1.60;;;;;;;;;;5013354;28;20241;-67
2022/09/02 02:32:18;;;;;;;4.03;1.80;;;;;;;;;;5013306;28;20175;-67
2022/09/02 02:34:44;;;;;;;3.10;2.00;;;;;;;;;;5012018;28;20203;-67
2022/09/02 02:37:11;;;;;;;3.83;1.80;;;;;;;;;;5013529;28;20183;-67
2022/09/02 02:39:38;;;;;;;3.57;2.00;;;;;;;;;;5013440;28;20263;-67
2022/09/02 02:42:04;;;;;;;2.43;1.90;;;;;;;;;;5011936;28;20194;-68
2022/09/02 02:44:30;;;;;;;4.93;2.10;;;;;;;;;;5016954;28;20671;-68
2022/09/02 02:46:57;;;;;;;11.90;2.10;;;;;;;;;;5017470;28;20190;-67
2022/09/02 02:49:25;;;;;;;4.90;2.30;;;;;;;;;;5015722;28;20200;-67
2022/09/02 02:51:52;;;;;;;5.93;2.10;;;;;;;;;;5016867;28;20192;-68
2022/09/02 02:54:18;;;;;;;7.10;2.10;;;;;;;;;;5017284;28;20198;-68
2022/09/02 02:56:44;;;;;;;2.93;2.00;;;;;;;;;;5015692;28;20550;-68
2022/09/02 02:59:10;;;;;;;2.70;2.07;;;;;;;;;;5017763;28;20191;-68
2022/09/02 03:01:36;;;;;;;5.37;2.00;;;;;;;;;;5016789;28;20257;-67
2022/09/02 03:04:02;;;;;;;2.60;2.00;;;;;;;;;;5016851;28;20572;-67
2022/09/02 03:06:28;;;;;;;4.80;2.13;;;;;;;;;;5016748;28;20182;-68
2022/09/02 03:08:56;;;;;;;3.90;2.03;;;;;;;;;;5015364;28;20211;-68
2022/09/02 03:11:23;;;;;;;4.73;2.33;;;;;;;;;;5016583;28;20687;-68
2022/09/02 03:13:49;;;;;;;6.63;2.00;;;;;;;;;;5017142;28;20183;-68
2022/09/02 03:16:18;;;;;;;4.00;2.17;;;;;;;;;;5015329;28;20211;-67
2022/09/02 03:18:44;;;;;;;2.90;2.10;;;;;;;;;;5016486;28;20187;-67
2022/09/02 03:21:10;;;;;;;5.27;2.20;;;;;;;;;;5016390;28;20208;-67
2022/09/02 03:23:36;;;;;;;4.93;2.53;;;;;;;;;;5016411;28;20183;-68
2022/09/02 03:26:03;;;;;;;4.83;2.37;;;;;;;;;;5016600;28;20176;-68
2022/09/02 03:28:29;;;;;;;4.13;2.23;;;;;;;;;;5016489;28;20290;-67
2022/09/02 03:30:54;;;;;;;2.90;2.27;;;;;;;;;;5014832;28;20291;-68
2022/09/02 03:33:20;;;;;;;8.17;2.83;;;;;;;;;;5014888;28;20629;-68
2022/09/02 03:35:46;;;;;;;5.90;2.30;;;;;;;;;;5016267;28;20183;-67
2022/09/02 03:38:13;;;;;;;2.63;2.23;;;;;;;;;;5016383;28;20211;-67
2022/09/02 03:40:39;;;;;;;5.57;2.53;;;;;;;;;;5016304;28;20231;-67
2022/09/02 03:43:05;;;;;;;3.90;2.50;;;;;;;;;;5016615;28;20206;-67
2022/09/02 03:45:31;;;;;;;7.00;2.50;;;;;;;;;;5016041;28;20211;-67
2022/09/02 03:47:58;;;;;;;5.23;2.63;;;;;;;;;;5015866;28;20184;-67
2022/09/02 03:50:25;;;;;;;5.07;2.70;;;;;;;;;;5015742;28;20238;-67
2022/09/02 03:52:52;;;;;;;5.83;3.13;;;;;;;;;;5014579;28;20186;-67
2022/09/02 03:55:18;;;;;;;5.17;2.67;;;;;;;;;;5015470;28;20176;-67
2022/09/02 03:57:45;;;;;;;3.37;2.63;;;;;;;;;;5015826;28;20172;-67
2022/09/02 04:00:12;;;;;;;4.40;2.60;;;;;;;;;;5014475;28;20234;-68
2022/09/02 04:02:38;;;;;;;5.43;2.83;;;;;;;;;;5015990;28;20311;-67
2022/09/02 04:05:04;;;;;;;6.37;2.60;;;;;;;;;;5014399;28;20233;-67
2022/09/02 04:07:30;;;;;;;6.70;2.73;;;;;;;;;;5015551;28;20175;-67
2022/09/02 04:09:57;;;;;;;11.63;3.10;;;;;;;;;;5015735;28;20215;-67
2022/09/02 04:12:23;;;;;;;5.43;2.80;;;;;;;;;;5014222;28;20262;-68
2022/09/02 04:14:49;;;;;;;7.17;2.83;;;;;;;;;;5015384;28;20207;-67
2022/09/02 04:17:15;;;;;;;3.93;2.53;;;;;;;;;;5015639;28;20184;-68
2022/09/02 04:19:41;;;;;;;4.80;2.70;;;;;;;;;;5014081;28;20180;-67
2022/09/02 04:22:07;;;;;;;4.60;3.00;;;;;;;;;;5015329;28;20602;-67
2022/09/02 04:24:33;;;;;;;6.20;2.57;;;;;;;;;;5015758;28;20183;-67
2022/09/02 04:26:59;;;;;;;4.33;2.60;;;;;;;;;;5015531;28;20211;-67
2022/09/02 04:29:25;;;;;;;3.43;2.53;;;;;;;;;;5013865;28;20239;-67
2022/09/02 04:31:51;;;;;;;2.90;2.47;;;;;;;;;;5015089;28;20211;-67
2022/09/02 04:34:17;;;;;;;6.13;2.90;;;;;;;;;;5013802;28;20180;-67
2022/09/02 04:36:43;;;;;;;6.27;2.70;;;;;;;;;;5015327;28;20180;-67
2022/09/02 04:39:09;;;;;;;7.17;2.30;;;;;;;;;;5013672;28;20250;-67
2022/09/02 04:41:36;;;;;;;4.53;2.47;;;;;;;;;;5014851;28;20203;-67
2022/09/02 04:44:02;;;;;;;6.43;2.80;;;;;;;;;;5015164;28;20183;-67
2022/09/02 04:46:28;;;;;;;6.33;2.50;;;;;;;;;;5014750;28;20277;-67
2022/09/02 04:48:55;;;;;;;5.80;2.37;;;;;;;;;;5013206;28;20698;-67
2022/09/02 04:51:22;;;;;;;5.00;2.50;;;;;;;;;;5013558;28;20219;-67
2022/09/02 04:53:49;;;;;;;4.27;2.83;;;;;;;;;;5014731;28;20183;-67
2022/09/02 04:56:17;;;;;;;4.33;2.47;;;;;;;;;;5014755;28;20180;-67
2022/09/02 04:58:43;;;;;;;14.10;2.70;;;;;;;;;;5013326;28;20237;-67
2022/09/02 05:01:16;;;;;;;3.80;2.70;;;;;;;;;;5014524;28;20231;-67
2022/09/02 05:03:43;;;;;;;6.53;2.83;;;;;;;;;;5014575;28;20184;-67
2022/09/02 05:06:10;;;;;;;9.03;2.90;;;;;;;;;;5014342;28;20545;-67
2022/09/02 05:08:36;;;;;;;9.07;2.90;;;;;;;;;;5013168;28;20238;-67
2022/09/02 05:11:06;;;;;;;7.33;2.87;;;;;;;;;;5013382;28;20544;-67
2022/09/02 05:13:32;;;;;;;8.83;2.93;;;;;;;;;;5014390;28;20176;-67
2022/09/02 05:15:58;;;;;;;9.10;2.93;;;;;;;;;;5014418;28;20171;-68
2022/09/02 05:18:24;;;;;;;19.10;3.00;;;;;;;;;;5014505;28;20180;-67
2022/09/02 05:20:50;;;;;;;13.93;3.97;;;;;;;;;;5013054;28;20663;-67
2022/09/02 05:23:16;;;;;;;13.87;3.30;;;;;;;;;;5014359;28;20779;-67
2022/09/02 05:25:43;;;;;;;11.77;3.40;;;;;;;;;;5014207;28;20176;-68
2022/09/02 05:28:09;;;;;;;17.70;3.07;;;;;;;;;;5014057;28;20184;-68
2022/09/02 05:30:35;;;;;;;10.83;3.47;;;;;;;;;;5012809;28;20196;-68
2022/09/02 05:33:01;;;;;;;7.87;3.10;;;;;;;;;;5014134;28;20198;-68
2022/09/02 05:35:28;;;;;;;19.07;3.63;;;;;;;;;;5014173;28;20550;-68
2022/09/02 05:37:54;;;;;;;15.20;3.37;;;;;;;;;;5012821;28;20179;-68
2022/09/02 05:40:20;;;;;;;14.43;3.37;;;;;;;;;;5012741;28;20211;-68
2022/09/02 05:42:46;;;;;;;6.80;2.93;;;;;;;;;;5014202;28;20241;-68
2022/09/02 05:45:12;;;;;;;5.80;2.63;;;;;;;;;;5014360;28;20263;-68
2022/09/02 05:47:38;;;;;;;40.30;4.90;;;;;;;;;;5012947;28;20585;-68
2022/09/02 05:50:04;;;;;;;15.67;3.90;;;;;;;;;;5012419;28;20266;-68
2022/09/02 05:52:31;;;;;;;10.23;3.23;;;;;;;;;;5012784;28;20600;-68
2022/09/02 05:54:57;;;;;;;9.07;4.37;;;;;;;;;;5012579;28;20183;-68
2022/09/02 05:57:24;;;;;;;10.63;2.97;;;;;;;;;;5012767;28;20274;-68
2022/09/02 05:59:54;;;;;;;8.80;3.50;;;;;;;;;;5014116;28;20236;-68
2022/09/02 06:02:21;;;;;;;9.00;3.00;;;;;;;;;;5013295;28;20183;-68
2022/09/02 06:04:48;;;;;;;16.03;3.67;;;;;;;;;;5012372;28;20655;-68
2022/09/02 06:07:15;;;;;;;6.70;2.90;;;;;;;;;;5014215;28;20187;-68
2022/09/02 06:09:43;;;;;;;8.33;3.03;;;;;;;;;;5012240;28;20214;-68
2022/09/02 06:12:10;;;;;;;14.30;2.70;;;;;;;;;;5013761;28;20172;-68
2022/09/02 06:14:36;;;;;;;7.33;2.60;;;;;;;;;;5012482;28;20176;-68
2022/09/02 06:17:03;;;;;;;13.37;3.53;;;;;;;;;;5012185;28;20203;-68
2022/09/02 06:19:31;;;;;;;12.33;3.00;;;;;;;;;;5013414;28;20190;-67
2022/09/02 06:21:58;;;;;;;17.63;3.40;;;;;;;;;;5012190;28;20278;-68
2022/09/02 06:24:24;;;;;;;8.17;2.63;;;;;;;;;;5012136;28;20242;-67
2022/09/02 06:26:52;;;;;;;17.30;3.37;;;;;;;;;;5013488;28;20180;-68
2022/09/02 06:29:18;;;;;;;16.37;3.63;;;;;;;;;;5013211;28;20226;-68
2022/09/02 06:31:45;;;;;;;18.47;3.77;;;;;;;;;;5013566;28;20203;-68
2022/09/02 06:34:12;;;;;;;13.27;3.10;;;;;;;;;;5013497;28;20263;-68
2022/09/02 06:36:39;;;;;;;10.23;3.30;;;;;;;;;;5012420;28;20190;-68
2022/09/02 06:39:05;;;;;;;15.20;3.73;;;;;;;;;;5013660;28;20179;-68
2022/09/02 06:41:32;;;;;;;10.17;3.37;;;;;;;;;;5012090;28;20676;-68
2022/09/02 06:44:00;;;;;;;12.97;3.80;;;;;;;;;;5013579;28;20245;-68
2022/09/02 06:46:31;;;;;;;13.87;3.70;;;;;;;;;;5013761;28;20258;-68
2022/09/02 06:48:57;;;;;;;25.73;4.60;;;;;;;;;;5013186;28;20234;-68
2022/09/02 06:51:28;;;;;;;11.47;3.10;;;;;;;;;;5013098;28;20272;-68
2022/09/02 06:53:54;;;;;;;14.43;3.57;;;;;;;;;;5012119;28;20266;-68
2022/09/02 06:56:20;;;;;;;19.80;3.53;;;;;;;;;;5013217;28;20204;-68
2022/09/02 06:58:46;;;;;;;13.27;3.23;;;;;;;;;;5012545;28;20199;-68
2022/09/02 07:01:26;;;;;;;13.53;3.50;;;;;;;;;;5013936;28;20208;-68
2022/09/02 07:06:39;;;;;;;7.63;3.30;;;;;;;;;;5013886;28;20183;-68
2022/09/02 07:09:06;;;;;;;13.47;3.60;;;;;;;;;;5013168;28;20196;-68
2022/09/02 07:11:32;;;;;;;12.87;3.50;;;;;;;;;;5013061;28;20199;-68
2022/09/02 07:14:01;;;;;;;11.60;4.93;;;;;;;;;;5011801;28;20234;-68
2022/09/02 07:16:28;;;;;;;13.53;5.00;;;;;;;;;;5013111;28;20690;-68
2022/09/02 07:18:54;;;;;;;17.87;5.20;;;;;;;;;;5012997;28;20183;-67
2022/09/02 07:21:21;;;;;;;18.13;5.40;;;;;;;;;;5013447;28;20200;-68
2022/09/02 07:23:46;;;;;;;19.13;4.93;;;;;;;;;;5012114;28;20615;-68
2022/09/02 07:26:13;;;;;;;10.87;5.20;;;;;;;;;;5011976;28;20195;-68
2022/09/02 07:28:41;;;;;;;19.77;4.63;;;;;;;;;;5014054;28;20242;-68
2022/09/02 07:31:08;;;;;;;19.70;5.50;;;;;;;;;;5016328;28;20580;-68
2022/09/02 07:33:35;;;;;;;15.87;5.13;;;;;;;;;;5016445;28;20211;-68
2022/09/02 07:36:01;;;;;;;13.80;4.50;;;;;;;;;;5016136;28;20175;-68
2022/09/02 07:38:28;;;;;;;12.23;4.63;;;;;;;;;;5016218;28;20184;-68
2022/09/02 07:40:54;;;;;;;11.23;3.53;;;;;;;;;;5016224;28;20207;-68
2022/09/02 07:43:21;;;;;;;13.20;4.23;;;;;;;;;;5016064;28;20180;-68
2022/09/02 07:45:48;;;;;;;9.37;3.63;;;;;;;;;;5014634;28;20267;-68
2022/09/02 07:48:14;;;;;;;8.37;3.50;;;;;;;;;;5014666;28;20326;-68
2022/09/02 07:50:41;;;;;;;7.63;3.10;;;;;;;;;;5015623;28;20215;-68
2022/09/02 07:53:07;;;;;;;8.80;3.43;;;;;;;;;;5016464;28;20179;-68
2022/09/02 07:55:34;;;;;;;8.97;3.57;;;;;;;;;;5015850;28;20199;-67
2022/09/02 07:58:00;;;;;;;13.07;3.13;;;;;;;;;;5016368;28;20172;-67
2022/09/02 08:00:27;;;;;;;10.67;3.23;;;;;;;;;;5016066;28;20205;-68
2022/09/02 08:02:53;;;;;;;13.57;3.70;;;;;;;;;;5014717;28;20291;-67
2022/09/02 08:05:19;;;;;;;6.27;2.57;;;;;;;;;;5015122;28;20558;-68
2022/09/02 08:07:45;;;;;;;8.10;2.80;;;;;;;;;;5016014;28;20190;-68
2022/09/02 08:10:11;;;;;;;6.27;3.03;;;;;;;;;;5014231;28;20212;-68
2022/09/02 08:12:39;;;;;;;8.20;3.27;;;;;;;;;;5015804;28;20603;-68
2022/09/02 08:15:05;;;;;;;8.70;3.00;;;;;;;;;;5014153;28;20663;-68
2022/09/02 08:17:31;;;;;;;5.43;2.80;;;;;;;;;;5013947;28;20187;-67
2022/09/02 08:19:57;;;;;;;9.03;3.00;;;;;;;;;;5014177;28;20207;-68
2022/09/02 08:22:24;;;;;;;11.67;3.23;;;;;;;;;;5014047;28;20183;-68
2022/09/02 08:24:50;;;;;;;7.00;3.20;;;;;;;;;;5014083;28;20187;-68
2022/09/02 08:27:15;;;;;;;7.93;2.70;;;;;;;;;;5015523;28;20190;-68
2022/09/02 08:29:42;;;;;;;9.27;3.13;;;;;;;;;;5015106;28;20608;-68
2022/09/02 08:32:08;;;;;;;5.70;2.83;;;;;;;;;;5014569;28;20535;-68
2022/09/02 08:34:34;;;;;;;8.33;3.47;;;;;;;;;;5015041;28;20235;-68
2022/09/02 08:37:00;;;;;;;7.23;3.40;;;;;;;;;;5015173;28;20549;-68
2022/09/02 08:39:26;;;;;;;15.60;3.60;;;;;;;;;;5013887;28;20202;-67
2022/09/02 08:41:58;;;;;;;10.30;3.40;;;;;;;;;;5013772;28;20223;-67
2022/09/02 08:44:27;;;;;;;13.10;3.47;;;;;;;;;;5015856;28;20172;-68
2022/09/02 08:46:56;;;;;;;7.27;3.07;;;;;;;;;;5014927;28;20183;-68
2022/09/02 08:49:25;;;;;;;15.20;3.07;;;;;;;;;;5016028;28;20211;-67
2022/09/02 08:52:02;;;;;;;9.50;3.30;;;;;;;;;;5017929;28;20230;-68
2022/09/02 08:54:32;;;;;;;10.47;4.00;;;;;;;;;;5018331;28;20168;-68
2022/09/02 08:56:58;;;;;;;7.80;3.10;;;;;;;;;;5015475;28;20179;-67
2022/09/02 08:59:26;;;;;;;6.30;3.47;;;;;;;;;;5015038;28;20168;-67
2022/09/02 09:02:19;;;;;;;9.67;3.13;;;;;;;;;;5014712;28;20192;-68
2022/09/02 09:05:05;;;;;;;5.50;2.80;;;;;;;;;;5013632;28;20183;-68
2022/09/02 09:07:37;;;;;;;6.17;2.70;;;;;;;;;;5013271;28;20279;-67
2022/09/02 09:10:09;;;;;;;23.33;5.10;;;;;;;;;;5014224;28;20211;-67
2022/09/02 09:12:53;;;;;;;6.97;3.10;;;;;;;;;;5015020;28;20522;-67
2022/09/02 09:15:24;;;;;;;7.83;3.63;;;;;;;;;;5013344;28;20186;-67
2022/09/02 09:17:56;;;;;;;6.83;3.20;;;;;;;;;;5013300;28;20168;-68
2022/09/02 09:20:31;;;;;;;6.03;3.33;;;;;;;;;;5014553;28;20631;-68
2022/09/02 09:22:58;;;;;;;9.07;3.70;;;;;;;;;;5014274;28;20249;-67
2022/09/02 09:25:28;;;;;;;9.53;2.90;;;;;;;;;;5014107;28;20529;-67
2022/09/02 09:27:55;;;;;;;7.37;3.10;;;;;;;;;;5014388;28;20160;-68
2022/09/02 09:30:22;;;;;;;5.47;2.90;;;;;;;;;;5012737;28;20220;-68
2022/09/02 09:32:58;;;;;;;13.23;3.43;;;;;;;;;;5013052;28;20548;-68
2022/09/02 09:35:25;;;;;;;9.80;3.20;;;;;;;;;;5012690;28;20603;-68
2022/09/02 09:37:52;;;;;;;12.93;3.30;;;;;;;;;;5013851;28;20295;-67
2022/09/02 09:40:24;;;;;;;8.80;2.43;;;;;;;;;;5013711;28;20262;-67
2022/09/02 09:43:05;;;;;;;7.47;2.70;;;;;;;;;;5014104;28;20167;-68
2022/09/02 09:45:33;;;;;;;6.43;2.30;;;;;;;;;;5012643;28;20250;-68
2022/09/02 09:48:18;;;;;;;8.80;2.27;;;;;;;;;;5012491;28;20190;-68
2022/09/02 09:50:44;;;;;;;2.50;2.30;;;;;;;;;;5013929;28;20216;-68
2022/09/02 09:53:14;;;;;;;4.63;2.70;;;;;;;;;;5012100;28;20183;-67
2022/09/02 09:55:52;;;;;;;7.73;2.77;;;;;;;;;;5012395;28;20187;-68
2022/09/02 09:58:18;;;;;;;4.13;2.20;;;;;;;;;;5013898;28;20178;-69
2022/09/02 10:00:44;;;;;;;2.33;2.10;;;;;;;;;;5014235;28;20246;-68
2022/09/02 10:03:18;;;;;;;3.40;2.80;;;;;;;;;;5012381;28;20187;-68
2022/09/02 10:05:44;;;;;;;4.90;3.20;;;;;;;;;;5013775;28;20542;-68
2022/09/02 10:08:16;;;;;;;3.13;2.37;;;;;;;;;;5012137;28;20667;-68
2022/09/02 10:10:59;;;;;;;7.57;2.97;;;;;;;;;;5012234;28;20223;-69
2022/09/02 10:13:28;;;;;;;3.67;2.57;;;;;;;;;;5013464;28;20175;-68
2022/09/02 10:16:00;;;;;;;3.47;2.53;;;;;;;;;;5013800;28;20176;-68
2022/09/02 10:18:32;;;;;;;4.50;3.10;;;;;;;;;;5012301;28;20180;-69
2022/09/02 10:21:04;;;;;;;3.83;2.40;;;;;;;;;;5012409;28;20568;-68
2022/09/02 10:23:42;;;;;;;2.80;2.17;;;;;;;;;;5012199;28;20266;-68
2022/09/02 10:26:19;;;;;;;2.93;2.50;;;;;;;;;;5012051;28;20180;-68
2022/09/02 10:29:05;;;;;;;2.47;2.07;;;;;;;;;;5013625;28;20249;-67
2022/09/02 10:31:37;;;;;;;6.43;2.60;;;;;;;;;;5013531;28;20191;-68
2022/09/02 10:34:03;;;;;;;9.40;2.53;;;;;;;;;;5013417;28;20172;-68
2022/09/02 10:36:35;;;;;;;3.70;1.87;;;;;;;;;;5013422;28;20547;-67
2022/09/02 10:39:16;;;;;;;3.97;2.03;;;;;;;;;;5013177;28;20183;-70
2022/09/02 10:41:44;;;;;;;6.27;2.17;;;;;;;;;;5013316;28;20734;-68
2022/09/02 10:44:40;;;;;;;1.60;1.50;;;;;;;;;;5012220;28;20184;-68
2022/09/02 10:47:13;;;;;;;10.47;2.40;;;;;;;;;;4999240;28;20188;-67
2022/09/02 10:49:45;;;;;;;3.73;2.00;;;;;;;;;;5012856;28;20242;-68
2022/09/02 10:52:29;;;;;;;2.70;1.97;;;;;;;;;;5011819;28;20627;-67
2022/09/02 10:54:58;;;;;;;4.27;2.40;;;;;;;;;;5013420;28;20629;-67
2022/09/02 10:57:28;;;;;;;50.87;5.80;;;;;;;;;;5013336;28;20180;-67
2022/09/02 11:00:04;;;;;;;5.97;2.20;;;;;;;;;;5013461;28;20203;-67
2022/09/02 11:02:32;;;;;;;7.23;2.13;;;;;;;;;;5013246;28;20605;-67
2022/09/02 11:04:59;;;;;;;3.27;2.60;;;;;;;;;;5014513;28;20187;-67
2022/09/02 11:07:52;;;;;;;4.20;2.30;;;;;;;;;;5016827;28;20554;-67
2022/09/02 11:10:21;;;;;;;5.87;2.17;;;;;;;;;;5012719;28;20224;-67
2022/09/02 11:12:55;;;;;;;6.80;2.07;;;;;;;;;;5040194;23;20250;-70
2022/09/02 11:15:31;;;;;;;3.83;2.00;;;;;;;;;;5017486;28;20222;-68
2022/09/02 11:18:00;;;;;;;2.37;2.03;;;;;;;;;;5016955;28;20247;-71
2022/09/02 11:20:25;;;;;;;2.60;2.40;;;;;;;;;;5017012;28;20180;-71
2022/09/02 11:22:55;;;;;;;3.33;2.67;;;;;;;;;;5017099;28;20200;-71
2022/09/02 11:25:25;;;;;;;3.60;2.80;;;;;;;;;;5015484;28;20567;-70
2022/09/02 11:27:59;;;;;;;4.60;3.40;;;;;;;;;;5017389;28;20168;-70
2022/09/02 11:30:29;;;;;;;5.40;3.70;;;;;;;;;;5015363;28;20199;-71
2022/09/02 11:33:13;;;;;;;2.63;2.20;;;;;;;;;;5015225;28;20200;-71
2022/09/02 11:35:41;;;;;;;5.90;3.03;;;;;;;;;;5016648;28;20156;-68
2022/09/02 11:38:16;;;;;;;4.13;3.20;;;;;;;;;;5015207;28;20540;-71
2022/09/02 11:40:48;;;;;;;3.30;2.80;;;;;;;;;;5016473;28;20171;-68
2022/09/02 11:43:14;;;;;;;6.70;2.80;;;;;;;;;;5016415;28;20622;-68
2022/09/02 11:45:50;;;;;;;2.60;1.93;;;;;;;;;;5016583;28;20191;-68
2022/09/02 11:48:40;;;;;;;2.30;2.10;;;;;;;;;;5016722;28;20182;-69
2022/09/02 11:51:06;;;;;;;6.70;4.47;;;;;;;;;;5016509;28;20167;-69
2022/09/02 11:53:36;;;;;;;3.33;2.90;;;;;;;;;;5016786;28;20199;-69
2022/09/02 11:56:13;;;;;;;2.83;2.13;;;;;;;;;;5016634;28;20168;-70
2022/09/02 11:58:43;;;;;;;4.30;2.40;;;;;;;;;;5016825;28;20540;-71
2022/09/02 12:01:15;;;;;;;4.77;2.27;;;;;;;;;;5015135;28;20190;-71
2022/09/02 12:03:53;;;;;;;3.20;2.03;;;;;;;;;;5014924;28;20207;-71
2022/09/02 12:06:20;;;;;;;3.77;2.33;;;;;;;;;;5014867;28;20644;-71
2022/09/02 12:08:47;;;;;;;3.53;2.40;;;;;;;;;;5016124;28;20282;-70
2022/09/02 12:11:36;;;;;;;4.63;2.13;;;;;;;;;;5014968;28;20269;-70
2022/09/02 12:14:03;;;;;;;3.90;2.40;;;;;;;;;;5015882;28;20203;-70
2022/09/02 12:16:29;;;;;;;2.57;2.10;;;;;;;;;;5016379;28;20176;-70
2022/09/02 12:18:58;;;;;;;2.70;2.00;;;;;;;;;;5014504;28;20192;-70
2022/09/02 12:21:25;;;;;;;2.23;1.87;;;;;;;;;;5014867;28;20660;-69
2022/09/02 12:23:54;;;;;;;3.77;1.60;;;;;;;;;;5015296;28;20214;-69
2022/09/02 12:26:21;;;;;;;4.30;1.90;;;;;;;;;;5016892;28;20183;-69
2022/09/02 12:28:47;;;;;;;4.10;2.20;;;;;;;;;;5015046;28;20257;-69
2022/09/02 12:31:20;;;;;;;6.20;2.00;;;;;;;;;;5016606;28;20242;-71
2022/09/02 12:33:50;;;;;;;7.67;2.10;;;;;;;;;;5016164;28;20192;-70
2022/09/02 12:36:34;;;;;;;9.37;1.80;;;;;;;;;;5016071;28;20172;-71
2022/09/02 12:39:19;;;;;;;2.30;2.10;;;;;;;;;;5014965;28;20246;-69
2022/09/02 12:41:50;;;;;;;4.37;1.90;;;;;;;;;;5014443;28;20187;-70
2022/09/02 12:44:22;;;;;;;7.00;1.90;;;;;;;;;;5016857;28;20283;-72
2022/09/02 12:46:55;;;;;;;6.72;2.40;;;;;;;;;;5013192;28;20730;-72
2022/09/02 12:49:26;;;;;;;3.53;2.20;;;;;;;;;;5014120;28;20298;-69
2022/09/02 12:51:55;;;;;;;4.63;2.47;;;;;;;;;;5017007;28;20160;-69
2022/09/02 12:54:24;;;;;;;4.77;2.00;;;;;;;;;;5016740;28;20179;-71
2022/09/02 12:56:50;;;;;;;3.57;1.80;;;;;;;;;;5015598;28;20176;-71
2022/09/02 12:59:26;;;;;;;4.80;1.80;;;;;;;;;;5015927;28;20184;-71
2022/09/02 13:01:58;;;;;;;9.70;2.40;;;;;;;;;;5015316;28;20255;-70
2022/09/02 13:04:33;;;;;;;8.60;2.53;;;;;;;;;;5015656;28;20164;-70
2022/09/02 13:07:09;;;;;;;8.10;2.30;;;;;;;;;;5015824;28;20175;-75
2022/09/02 13:09:35;;;;;;;12.43;2.47;;;;;;;;;;5015796;28;20200;-72
2022/09/02 13:12:19;;;;;;;4.20;2.33;;;;;;;;;;5015556;28;20222;-70
2022/09/02 13:14:45;;;;;;;4.93;2.17;;;;;;;;;;5015418;28;20168;-70
2022/09/02 13:17:30;;;;;;;2.33;1.80;;;;;;;;;;5014810;28;20190;-70
2022/09/02 13:20:21;;;;;;;4.90;2.40;;;;;;;;;;5014894;28;20184;-70
2022/09/02 13:23:15;;;;;;;3.57;2.10;;;;;;;;;;5014894;28;20204;-70
2022/09/02 13:25:43;;;;;;;3.77;2.33;;;;;;;;;;5014590;28;20172;-69
2022/09/02 13:28:22;;;;;;;3.87;2.23;;;;;;;;;;5014426;28;20176;-69
2022/09/02 13:31:01;;;;;;;7.47;2.33;;;;;;;;;;5013246;28;20225;-69
2022/09/02 13:33:27;;;;;;;7.13;2.30;;;;;;;;;;5013852;28;20691;-70
2022/09/02 13:35:55;;;;;;;3.00;1.93;;;;;;;;;;5014674;28;20180;-70
2022/09/02 13:38:26;;;;;;;5.27;1.93;;;;;;;;;;5014977;28;20184;-70
2022/09/02 13:40:53;;;;;;;2.10;1.90;;;;;;;;;;5014097;28;20180;-70
2022/09/02 13:43:20;;;;;;;2.80;1.97;;;;;;;;;;5015689;28;20246;-69
2022/09/02 13:45:47;;;;;;;18.87;2.63;;;;;;;;;;5016656;28;20565;-70
2022/09/02 13:48:21;;;;;;;12.40;2.43;;;;;;;;;;5015424;28;20183;-69
2022/09/02 13:50:48;;;;;;;2.00;1.90;;;;;;;;;;5014242;28;20687;-70
2022/09/02 13:53:20;;;;;;;6.77;2.10;;;;;;;;;;5014394;28;20616;-70
2022/09/02 13:55:53;;;;;;;8.13;2.00;;;;;;;;;;5013235;28;20188;-69
2022/09/02 13:58:31;;;;;;;5.27;1.90;;;;;;;;;;5014773;28;20184;-69
2022/09/02 14:00:58;;;;;;;4.03;2.37;;;;;;;;;;5014233;28;20156;-69
2022/09/02 14:03:24;;;;;;;9.00;2.40;;;;;;;;;;5012575;28;20210;-69
2022/09/02 14:05:51;;;;;;;2.00;1.90;;;;;;;;;;5013891;28;20207;-70
2022/09/02 14:08:25;;;;;;;9.57;2.30;;;;;;;;;;5013874;28;20175;-70
2022/09/02 14:10:52;;;;;;;4.60;2.00;;;;;;;;;;5013682;28;20168;-71
2022/09/02 14:13:19;;;;;;;2.40;2.00;;;;;;;;;;5013598;28;20211;-70
2022/09/02 14:15:45;;;;;;;2.00;1.70;;;;;;;;;;5013744;28;20175;-71
2022/09/02 14:18:11;;;;;;;2.17;1.97;;;;;;;;;;5013800;28;20211;-70
2022/09/02 14:20:38;;;;;;;2.80;1.80;;;;;;;;;;5013586;28;20183;-70
2022/09/02 14:23:04;;;;;;;1.67;1.57;;;;;;;;;;5012343;28;20258;-70
2022/09/02 14:25:34;;;;;;;2.37;1.60;;;;;;;;;;5013827;28;20265;-70
2022/09/02 14:28:12;;;;;;;5.27;1.93;;;;;;;;;;5013976;28;20648;-71
2022/09/02 14:30:39;;;;;;;3.10;2.00;;;;;;;;;;5013715;28;20541;-71
2022/09/02 14:33:24;;;;;;;3.90;2.00;;;;;;;;;;5013610;28;20196;-72
2022/09/02 14:36:01;;;;;;;1.93;1.60;;;;;;;;;;5013712;28;20183;-71
2022/09/02 14:38:28;;;;;;;4.13;1.80;;;;;;;;;;5014215;28;20555;-70
2022/09/02 14:41:02;;;;;;;5.07;2.00;;;;;;;;;;5017778;28;20190;-70
2022/09/02 14:43:32;;;;;;;2.03;1.70;;;;;;;;;;5018272;28;20210;-70
2022/09/02 14:46:04;;;;;;;3.10;1.60;;;;;;;;;;5017853;28;20168;-70
2022/09/02 14:48:35;;;;;;;2.37;1.70;;;;;;;;;;5017753;28;20168;-71
2022/09/02 14:51:04;;;;;;;1.63;1.50;;;;;;;;;;5018590;28;20221;-70
2022/09/02 14:53:30;;;;;;;5.73;1.80;;;;;;;;;;5016806;28;20210;-69